Aviation Digital Data Service (ADDS)

Output produced by METARs form (1151 UTC 11 December 2016)
found at http://www.aviationweather.gov/adds/metars/
 
KCXY 111056Z AUTO 00000KT 10SM OVC090 M03/M09 A3051 RMK AO2 SLP337 T10331089
KCXY 110956Z AUTO 00000KT 10SM OVC110 M03/M10 A3050 RMK AO2 SLP334 T10281100
KCXY 110856Z AUTO 32003KT 10SM BKN110 M03/M10 A3049 RMK AO2 SLP332 T10331100 51002
KCXY 110756Z AUTO 00000KT 10SM CLR M03/M10 A3049 RMK AO2 SLP331 T10331100
KCXY 110656Z AUTO 27003KT 10SM CLR M03/M10 A3049 RMK AO2 SLP332 T10331100
KCXY 110556Z AUTO 25005KT 10SM CLR M04/M10 A3049 RMK AO2 SLP330 T10441100 11017 21050 50001
KCXY 110456Z AUTO 26004KT 10SM CLR M04/M11 A3049 RMK AO2 SLP332 T10441106 400281050
KCXY 110356Z AUTO 27006KT 10SM CLR M04/M11 A3049 RMK AO2 SLP331 T10391106
KCXY 110256Z AUTO 27006KT 10SM CLR M04/M11 A3049 RMK AO2 SLP329 T10391106 50003
KCXY 110156Z 26005KT 10SM CLR M03/M11 A3049 RMK AO2 SLP329 T10331106
KCXY 110056Z 27006KT 10SM CLR M02/M11 A3048 RMK AO2 SLP327 T10221106
KCXY 102356Z 28006KT 10SM CLR M02/M10 A3048 RMK AO2 SLP326 T10171100 10028 21017 51016
KCXY 102256Z 28008KT 10SM CLR M01/M10 A3047 RMK AO2 SLP322 T10111100
KCXY 102156Z 29007KT 10SM FEW046 M01/M11 A3045 RMK AO2 SLP316 T10061106
KCXY 102056Z 28010KT 10SM SCT047 01/M11 A3043 RMK AO2 SLP309 T00061106 53010
KCXY 101956Z 27013G21KT 10SM FEW044 01/M09 A3041 RMK AO2 SLP304 T00111094
KCXY 101856Z 28015G22KT 10SM BKN045 BKN055 02/M10 A3040 RMK AO2 SLP299 T00221100
KCXY 101756Z 29010G17KT 10SM FEW050 BKN110 02/M11 A3040 RMK AO2 SLP300 T00221111 10022 21022 56018
KCXY 101656Z 25010KT 10SM FEW120 02/M10 A3040 RMK AO2 SLP301 T00171100
KCXY 101556Z 25012KT 10SM FEW120 01/M09 A3044 RMK AO2 SLP312 T00061094
KCXY 101456Z 27012KT 10SM CLR 00/M09 A3045 RMK AO2 SLP318 T00001089 53008
KCXY 101356Z 27008KT 10SM CLR M01/M09 A3044 RMK AO2 SLP314 T10061089
KCXY 101256Z 27008KT 10SM CLR M02/M09 A3043 RMK AO2 SLP311 T10171089
KCXY 101156Z 27007KT 10SM CLR M02/M09 A3043 RMK AO2 SLP309 T10221089 11022 21039 53010
KCXY 101056Z AUTO 27009KT 10SM CLR M03/M09 A3041 RMK AO2 SLP305 T10281089
KCXY 100956Z AUTO 26006KT 10SM CLR M03/M09 A3040 RMK AO2 SLP300 T10331094
KCXY 100856Z AUTO 26007KT 10SM CLR M02/M09 A3040 RMK AO2 SLP299 T10221094 51010
KCXY 100756Z AUTO 28011KT 10SM CLR M02/M09 A3039 RMK AO2 SLP297 T10221094
KCXY 100656Z AUTO 27008KT 10SM CLR M02/M09 A3038 RMK AO2 SLP294 T10221094
KCXY 100556Z AUTO 26005KT 10SM CLR M03/M09 A3037 RMK AO2 SLP288 T10281089 11006 21028 50007
KCXY 100456Z AUTO 26007KT 10SM SCT042 M02/M09 A3037 RMK AO2 SLP289 T10221089 400281022
KCXY 100356Z AUTO 26007KT 10SM CLR M02/M09 A3035 RMK AO2 SLP281 T10171089
KCXY 100256Z AUTO 27010KT 10SM CLR M02/M08 A3034 RMK AO2 SLP281 T10171083 50003
KCXY 100156Z 25006KT 10SM OVC048 M01/M08 A3036 RMK AO2 SLP285 T10111083
KCXY 100056Z 25008KT 10SM BKN048 M01/M08 A3036 RMK AO2 SLP285 T10061083
KCXY 092356Z 27010KT 10SM CLR M01/M08 A3034 RMK AO2 SLP278 T10061083 10028 21006 51019